createdAt,value
2019-04-06T00:02:08.867Z,24.65
2019-04-06T00:04:38.418Z,29.18
2019-04-06T00:07:07.579Z,28.85
2019-04-06T00:09:37.893Z,30.10
2019-04-06T00:12:07.092Z,22.25
2019-04-06T00:14:36.378Z,25.17
2019-04-06T00:17:05.538Z,22.65
2019-04-06T00:19:34.806Z,24.23
2019-04-06T00:22:04.094Z,26.62
2019-04-06T00:24:33.292Z,27.30
2019-04-06T00:27:02.415Z,32.55
2019-04-06T00:29:31.616Z,22.62
2019-04-06T00:32:08.508Z,25.45
2019-04-06T00:34:38.088Z,27.77
2019-04-06T00:37:07.265Z,31.35
2019-04-06T00:39:36.456Z,25.68
2019-04-06T00:42:05.703Z,21.17
2019-04-06T00:44:34.837Z,26.82
2019-04-06T00:47:04.018Z,24.35
2019-04-06T00:49:33.223Z,32.80
2019-04-06T00:52:02.384Z,30.00
2019-04-06T00:54:31.794Z,27.62
2019-04-06T00:57:01.268Z,24.40
2019-04-06T00:59:30.427Z,34.92
2019-04-06T01:01:59.581Z,33.48
2019-04-06T01:04:28.728Z,28.92
2019-04-06T01:06:57.889Z,28.98
2019-04-06T01:09:27.022Z,25.05
2019-04-06T01:11:56.207Z,20.17
2019-04-06T01:14:25.326Z,23.22
2019-04-06T01:16:54.645Z,24.35
2019-04-06T01:19:23.842Z,31.23
2019-04-06T01:21:53.065Z,25.15
2019-04-06T01:24:22.313Z,27.52
2019-04-06T01:26:51.572Z,24.18
2019-04-06T01:29:20.726Z,32.40
2019-04-06T01:31:49.926Z,27.70
2019-04-06T01:34:19.192Z,30.60
2019-04-06T01:36:48.361Z,23.35
2019-04-06T01:39:17.725Z,21.68
2019-04-06T01:41:46.887Z,26.35
2019-04-06T01:44:16.069Z,28.45
2019-04-06T01:46:45.285Z,28.17
2019-04-06T01:49:14.499Z,26.10
2019-04-06T01:51:43.688Z,29.82
2019-04-06T01:54:12.988Z,27.65
2019-04-06T01:56:42.172Z,22.42
2019-04-06T01:59:11.345Z,27.15
2019-04-06T02:01:54.745Z,39.33
2019-04-06T02:04:23.857Z,25.52
2019-04-06T02:06:53.041Z,31.45
2019-04-06T02:09:22.217Z,22.37
2019-04-06T02:11:51.353Z,24.50
2019-04-06T02:14:20.568Z,22.75
2019-04-06T02:16:49.667Z,25.45
2019-04-06T02:19:18.844Z,30.80
2019-04-06T02:21:48.018Z,26.02
2019-04-06T02:24:17.260Z,30.60
2019-04-06T02:26:46.421Z,23.65
2019-04-06T02:29:15.778Z,25.27
2019-04-06T02:32:00.417Z,28.98
2019-04-06T02:34:44.183Z,25.20
2019-04-06T02:37:27.167Z,32.48
2019-04-06T02:40:18.495Z,26.10
2019-04-06T02:42:51.046Z,25.75
2019-04-06T02:45:20.304Z,24.92
2019-04-06T02:47:49.577Z,24.90
2019-04-06T02:50:18.780Z,20.85
2019-04-06T02:52:48.083Z,38.48
2019-04-06T02:55:17.284Z,26.17
2019-04-06T02:57:46.447Z,26.45
2019-04-06T03:00:16.109Z,26.25
2019-04-06T03:02:45.239Z,26.80
2019-04-06T03:05:14.457Z,27.37
2019-04-06T03:07:43.617Z,30.65
2019-04-06T03:10:13.015Z,28.87
2019-04-06T03:12:42.143Z,27.85
2019-04-06T03:15:11.714Z,23.32
2019-04-06T03:17:41.242Z,28.75
2019-04-06T03:20:11.015Z,23.05
2019-04-06T03:22:40.403Z,29.98
2019-04-06T03:25:10.135Z,26.77
2019-04-06T03:27:39.275Z,32.98
2019-04-06T03:30:08.829Z,27.90
2019-04-06T03:32:38.180Z,21.33
2019-04-06T03:35:07.792Z,21.48
2019-04-06T03:37:36.954Z,26.48
2019-04-06T03:40:06.385Z,20.17
2019-04-06T03:42:35.616Z,32.10
2019-04-06T03:45:06.289Z,23.00
2019-04-06T03:47:35.632Z,24.23
2019-04-06T03:50:05.547Z,30.12
2019-04-06T03:52:35.070Z,26.70
2019-04-06T03:55:06.463Z,29.20
2019-04-06T03:57:35.640Z,27.17
2019-04-06T04:00:06.813Z,30.70
2019-04-06T04:02:35.968Z,29.98
2019-04-06T04:05:06.765Z,27.93
2019-04-06T04:07:36.360Z,32.67
2019-04-06T04:10:07.405Z,29.32
2019-04-06T04:12:36.931Z,28.30
2019-04-06T04:15:06.645Z,28.12
2019-04-06T04:17:35.998Z,20.62
2019-04-06T04:20:06.138Z,32.35
2019-04-06T04:22:35.500Z,33.05
2019-04-06T04:25:05.077Z,30.57
2019-04-06T04:27:34.224Z,32.98
2019-04-06T04:30:03.393Z,29.45
2019-04-06T04:32:32.551Z,29.20
2019-04-06T04:35:01.715Z,26.40
2019-04-06T04:37:31.064Z,22.98
2019-04-06T04:40:00.216Z,25.37
2019-04-06T04:42:29.394Z,26.82
2019-04-06T04:44:58.582Z,23.65
2019-04-06T04:47:27.760Z,19.77
2019-04-06T04:49:57.087Z,21.20
2019-04-06T04:52:26.463Z,20.92
2019-04-06T04:54:55.749Z,22.77
2019-04-06T04:57:24.913Z,29.45
2019-04-06T04:59:54.172Z,24.10
2019-04-06T05:02:23.514Z,34.33
2019-04-06T05:04:52.649Z,43.55
2019-04-06T05:07:21.824Z,48.55
2019-04-06T05:09:51.212Z,38.75
2019-04-06T05:12:20.388Z,41.37
2019-04-06T05:15:04.711Z,42.83
2019-04-06T05:17:33.946Z,40.78
2019-04-06T05:20:03.277Z,38.42
2019-04-06T05:22:32.552Z,28.38
2019-04-06T05:25:01.791Z,30.02
2019-04-06T05:27:30.930Z,34.70
2019-04-06T05:30:00.091Z,38.40
2019-04-06T05:32:29.318Z,38.10
2019-04-06T05:34:58.717Z,29.63
2019-04-06T05:37:27.934Z,34.88
2019-04-06T05:39:57.115Z,47.15
2019-04-06T05:42:26.266Z,49.03
2019-04-06T05:44:55.431Z,43.15
2019-04-06T05:47:24.625Z,37.53
2019-04-06T05:49:53.763Z,38.73
2019-04-06T05:52:24.448Z,33.53
2019-04-06T05:54:54.905Z,41.77
2019-04-06T05:57:24.250Z,48.25
2019-04-06T05:59:53.553Z,40.08
2019-04-06T06:02:22.904Z,34.13
2019-04-06T06:04:52.040Z,40.58
2019-04-06T06:07:21.471Z,48.75
2019-04-06T06:09:50.582Z,42.33
2019-04-06T06:12:20.016Z,57.85
2019-04-06T06:14:49.495Z,40.95
2019-04-06T06:17:18.788Z,41.70
2019-04-06T06:19:47.900Z,29.87
2019-04-06T06:22:17.093Z,18.67
2019-04-06T06:24:46.265Z,21.95
2019-04-06T06:27:15.432Z,18.77
2019-04-06T06:29:44.575Z,31.62
2019-04-06T06:32:13.779Z,18.85
2019-04-06T06:34:42.910Z,21.10
2019-04-06T06:37:13.062Z,34.05
2019-04-06T06:39:42.230Z,31.05
2019-04-06T06:42:11.418Z,27.90
2019-04-06T06:44:40.590Z,32.23
2019-04-06T06:47:10.039Z,31.12
2019-04-06T06:49:39.235Z,38.33
2019-04-06T06:52:08.468Z,33.90
2019-04-06T06:54:37.631Z,32.85
2019-04-06T06:57:07.180Z,33.15
2019-04-06T06:59:36.356Z,28.00
2019-04-06T07:02:05.544Z,28.10
2019-04-06T07:04:34.719Z,27.95
2019-04-06T07:07:03.964Z,37.17
2019-04-06T07:09:37.618Z,32.90
2019-04-06T07:12:06.901Z,31.82
2019-04-06T07:14:36.324Z,29.10
2019-04-06T07:17:05.475Z,37.58
2019-04-06T07:19:34.803Z,39.53
2019-04-06T07:22:04.052Z,33.67
2019-04-06T07:24:33.292Z,34.23
2019-04-06T07:27:02.933Z,33.88
2019-04-06T07:29:33.635Z,30.57
2019-04-06T07:32:02.870Z,23.65
2019-04-06T07:34:32.022Z,28.12
2019-04-06T07:37:01.203Z,26.60
2019-04-06T07:39:30.357Z,28.25
2019-04-06T07:42:00.123Z,31.15
2019-04-06T07:44:29.694Z,29.30
2019-04-06T07:46:58.881Z,31.45
2019-04-06T07:49:28.209Z,30.17
2019-04-06T07:51:57.382Z,35.25
2019-04-06T07:54:27.024Z,37.17
2019-04-06T07:56:56.226Z,36.38
2019-04-06T07:59:25.415Z,40.92
2019-04-06T08:01:54.566Z,39.08
2019-04-06T08:04:23.759Z,34.18
2019-04-06T08:06:52.922Z,43.65
2019-04-06T08:09:22.133Z,39.67
2019-04-06T08:11:51.285Z,46.35
2019-04-06T08:14:20.472Z,45.23
2019-04-06T08:16:49.830Z,31.00
2019-04-06T08:19:18.969Z,38.78
2019-04-06T08:21:48.164Z,34.63
2019-04-06T08:24:17.305Z,44.65
2019-04-06T08:26:46.630Z,38.20
2019-04-06T08:29:15.801Z,46.65
2019-04-06T08:31:45.041Z,40.35
2019-04-06T08:34:14.261Z,44.98
2019-04-06T08:36:43.455Z,40.85
2019-04-06T08:39:12.598Z,40.35
2019-04-06T08:41:41.765Z,46.18
2019-04-06T08:44:10.920Z,39.58
2019-04-06T08:46:40.111Z,35.08
2019-04-06T08:49:09.426Z,35.28
2019-04-06T08:51:38.625Z,43.38
2019-04-06T08:54:08.088Z,43.90
2019-04-06T08:56:37.703Z,41.83
2019-04-06T08:59:12.193Z,41.88
2019-04-06T09:01:37.771Z,39.85
2019-04-06T09:04:06.953Z,44.73
2019-04-06T09:06:36.356Z,33.02
2019-04-06T09:09:07.352Z,41.48
2019-04-06T09:11:36.553Z,37.15
2019-04-06T09:14:05.932Z,36.03
2019-04-06T09:16:35.098Z,41.95
2019-04-06T09:19:04.284Z,39.15
2019-04-06T09:21:33.469Z,40.88
2019-04-06T09:24:02.712Z,43.35
2019-04-06T09:26:32.050Z,38.90
2019-04-06T09:29:01.234Z,44.27
2019-04-06T09:31:30.386Z,41.88
2019-04-06T09:33:59.581Z,43.30
2019-04-06T09:36:30.189Z,43.08
2019-04-06T09:38:59.709Z,40.58
2019-04-06T09:41:29.447Z,42.88
2019-04-06T09:43:58.662Z,38.90
2019-04-06T09:46:59.155Z,40.97
2019-04-06T09:49:46.162Z,42.20
2019-04-06T09:52:25.733Z,42.30
2019-04-06T09:55:17.983Z,43.70
2019-04-06T09:58:03.870Z,37.63
2019-04-06T10:00:44.259Z,37.38
2019-04-06T10:03:41.444Z,44.50
2019-04-06T10:06:38.694Z,44.05
2019-04-06T10:09:23.296Z,48.27
2019-04-06T10:12:08.650Z,46.42
2019-04-06T10:14:56.053Z,37.77
2019-04-06T10:17:58.583Z,44.43
2019-04-06T10:20:49.881Z,45.08
2019-04-06T10:23:47.429Z,38.40
2019-04-06T10:26:35.763Z,45.47
2019-04-06T10:29:33.042Z,39.23
2019-04-06T10:32:10.897Z,45.98
2019-04-06T10:35:01.826Z,40.35
2019-04-06T10:38:02.746Z,41.77
2019-04-06T10:41:02.964Z,45.30
2019-04-06T10:43:48.418Z,41.10
2019-04-06T10:46:39.751Z,42.70
2019-04-06T10:49:25.326Z,39.30
2019-04-06T10:52:16.221Z,46.23
2019-04-06T10:55:18.403Z,37.17
2019-04-06T10:58:15.607Z,38.65
2019-04-06T11:01:06.790Z,40.55
2019-04-06T11:03:54.882Z,40.13
2019-04-06T11:06:39.564Z,40.50
2019-04-06T11:09:26.630Z,39.47
2019-04-06T11:12:20.891Z,40.73
2019-04-06T11:15:21.220Z,35.57
2019-04-06T11:18:01.166Z,43.08
2019-04-06T11:20:43.962Z,31.87
2019-04-06T11:23:31.003Z,40.30
2019-04-06T11:26:18.091Z,37.63
2019-04-06T11:28:56.117Z,32.20
2019-04-06T11:31:43.657Z,33.80
2019-04-06T11:34:31.819Z,25.37
2019-04-06T11:37:20.166Z,30.68
2019-04-06T11:40:17.455Z,30.50
2019-04-06T11:43:08.795Z,32.23
2019-04-06T11:46:06.229Z,32.10
2019-04-06T11:48:54.423Z,38.93
2019-04-06T11:51:41.159Z,28.30
2019-04-06T11:54:28.669Z,28.90
2019-04-06T11:57:05.659Z,34.60
2019-04-06T12:00:06.255Z,34.23
2019-04-06T12:02:47.298Z,29.80
2019-04-06T12:05:47.846Z,28.80
2019-04-06T12:08:48.306Z,36.33
2019-04-06T12:11:35.516Z,30.97
2019-04-06T12:14:15.970Z,34.67
2019-04-06T12:16:53.855Z,29.90
2019-04-06T12:19:51.348Z,31.00
2019-04-06T12:22:45.600Z,30.10
2019-04-06T12:25:34.554Z,27.80
2019-04-06T12:28:37.849Z,31.93
2019-04-06T12:31:16.735Z,30.50
2019-04-06T12:33:55.613Z,23.63
2019-04-06T12:36:56.107Z,32.57
2019-04-06T12:39:52.727Z,27.10
2019-04-06T12:42:30.796Z,19.43
2019-04-06T12:45:27.447Z,25.30
2019-04-06T12:48:15.601Z,25.43
2019-04-06T12:51:12.895Z,25.47
2019-04-06T12:54:01.153Z,26.20
2019-04-06T12:56:46.570Z,24.60
2019-04-06T12:59:38.109Z,26.33
2019-04-06T13:02:32.434Z,22.30
2019-04-06T13:05:18.178Z,21.17
2019-04-06T13:08:21.578Z,21.70
2019-04-06T13:11:08.432Z,22.20
2019-04-06T13:13:47.037Z,22.47
2019-04-06T13:16:26.597Z,19.97
2019-04-06T13:19:14.811Z,20.37
2019-04-06T13:21:55.478Z,18.57
2019-04-06T13:24:46.867Z,20.70
2019-04-06T13:27:23.149Z,20.40
2019-04-06T13:30:00.591Z,18.53
2019-04-06T13:32:47.524Z,19.17
2019-04-06T13:35:26.810Z,20.70
2019-04-06T13:38:15.087Z,20.63
2019-04-06T13:41:03.219Z,22.53
2019-04-06T13:43:42.197Z,19.93
2019-04-06T13:46:20.322Z,23.47
2019-04-06T13:49:08.714Z,20.60
2019-04-06T13:52:00.714Z,20.37
2019-04-06T13:54:48.667Z,16.17
2019-04-06T13:57:38.017Z,21.20
2019-04-06T14:00:33.434Z,22.60
2019-04-06T14:03:24.846Z,21.17
2019-04-06T14:06:23.870Z,19.50
2019-04-06T14:09:11.055Z,18.83
2019-04-06T14:11:59.848Z,21.60
2019-04-06T14:14:55.646Z,20.20
2019-04-06T14:17:38.007Z,16.40
2019-04-06T14:20:21.408Z,20.63
2019-04-06T14:23:06.173Z,21.03
2019-04-06T14:25:45.714Z,17.03
2019-04-06T14:28:27.993Z,16.23
2019-04-06T14:31:27.217Z,13.70
2019-04-06T14:34:18.553Z,16.27
2019-04-06T14:37:14.023Z,15.17
2019-04-06T14:39:52.837Z,13.53
2019-04-06T14:42:39.880Z,13.43
2019-04-06T14:45:26.112Z,12.63
2019-04-06T14:48:14.842Z,15.20
2019-04-06T14:51:06.415Z,17.60
2019-04-06T14:53:47.340Z,12.37
2019-04-06T14:56:41.747Z,13.13
2019-04-06T14:59:38.919Z,11.43
2019-04-06T15:02:27.319Z,12.23
2019-04-06T15:05:18.531Z,11.63
2019-04-06T15:08:03.599Z,13.03
2019-04-06T15:10:42.022Z,10.67
2019-04-06T15:13:20.113Z,10.67
2019-04-06T15:16:23.458Z,10.03
2019-04-06T15:19:10.597Z,12.93
2019-04-06T15:22:14.073Z,14.10
2019-04-06T15:25:11.322Z,13.80
2019-04-06T15:28:02.070Z,11.67
2019-04-06T15:31:05.738Z,12.53
2019-04-06T15:33:56.975Z,10.57
2019-04-06T15:36:37.997Z,12.53
2019-04-06T15:39:27.380Z,11.60
2019-04-06T15:42:21.789Z,14.17
2019-04-06T15:45:08.616Z,9.13
2019-04-06T15:47:55.436Z,12.73
2019-04-06T15:50:55.459Z,10.53
2019-04-06T15:53:31.998Z,8.90
2019-04-06T15:56:22.955Z,10.77
2019-04-06T15:59:26.775Z,11.80
2019-04-06T16:02:03.217Z,10.20
2019-04-06T16:04:51.946Z,12.03
2019-04-06T16:07:47.738Z,13.27
2019-04-06T16:10:44.914Z,15.97
2019-04-06T16:13:33.112Z,13.87
2019-04-06T16:16:16.223Z,13.43
2019-04-06T16:18:59.790Z,11.30
2019-04-06T16:21:53.837Z,11.40
2019-04-06T16:24:48.074Z,12.50
2019-04-06T16:27:35.562Z,10.27
2019-04-06T16:30:23.481Z,9.20
2019-04-06T16:33:02.757Z,9.20
2019-04-06T16:35:51.134Z,10.70
2019-04-06T16:38:37.991Z,11.13
2019-04-06T16:41:22.137Z,10.03
2019-04-06T16:44:04.982Z,10.67
2019-04-06T16:46:50.854Z,11.80
2019-04-06T16:49:37.989Z,12.30
2019-04-06T16:52:35.135Z,10.90
2019-04-06T16:55:25.904Z,11.33
2019-04-06T16:58:20.051Z,9.20
2019-04-06T17:01:26.350Z,9.50
2019-04-06T17:04:04.727Z,11.93
2019-04-06T17:06:52.878Z,12.77
2019-04-06T17:09:40.071Z,12.03
2019-04-06T17:12:27.226Z,18.40
2019-04-06T17:15:24.513Z,12.83
2019-04-06T17:18:05.848Z,12.23
2019-04-06T17:20:55.683Z,15.97
2019-04-06T17:24:02.021Z,12.53
2019-04-06T17:27:08.354Z,13.97
2019-04-06T17:29:59.529Z,14.93
2019-04-06T17:32:58.368Z,11.40
2019-04-06T17:35:32.815Z,11.63
2019-04-06T17:38:21.128Z,11.27
2019-04-06T17:41:12.851Z,10.53
2019-04-06T17:44:00.322Z,11.63
2019-04-06T17:46:48.042Z,12.93
2019-04-06T17:49:28.749Z,12.00
2019-04-06T17:52:09.219Z,12.97
2019-04-06T17:54:57.366Z,17.40
2019-04-06T17:57:36.742Z,15.57
2019-04-06T18:00:26.565Z,16.77
2019-04-06T18:03:21.243Z,15.87
2019-04-06T18:06:05.897Z,17.07
2019-04-06T18:08:52.922Z,14.83
2019-04-06T18:11:36.473Z,20.50
2019-04-06T18:14:05.986Z,19.00
2019-04-06T18:16:36.888Z,18.93
2019-04-06T18:19:06.781Z,18.43
2019-04-06T18:21:35.984Z,18.53
2019-04-06T18:24:06.154Z,20.37
2019-04-06T18:26:35.309Z,19.40
2019-04-06T18:29:04.972Z,21.87
2019-04-06T18:31:42.167Z,24.20
2019-04-06T18:34:11.501Z,20.27
2019-04-06T18:37:02.541Z,22.03
2019-04-06T18:39:32.435Z,18.07
2019-04-06T18:42:01.910Z,19.30
2019-04-06T18:44:31.131Z,21.47
2019-04-06T18:47:00.405Z,22.53
2019-04-06T18:49:30.143Z,22.30
2019-04-06T18:51:59.332Z,22.57
2019-04-06T18:54:28.491Z,18.43
2019-04-06T18:56:58.072Z,25.20
2019-04-06T18:59:27.377Z,29.70
2019-04-06T19:01:56.642Z,23.53
2019-04-06T19:04:25.864Z,23.57
2019-04-06T19:06:54.971Z,22.20
2019-04-06T19:09:25.488Z,28.83
2019-04-06T19:11:57.107Z,26.67
2019-04-06T19:14:26.981Z,24.60
2019-04-06T19:16:56.351Z,25.40
2019-04-06T19:19:26.103Z,20.23
2019-04-06T19:21:55.634Z,27.62
2019-04-06T19:24:25.089Z,27.83
2019-04-06T19:26:54.264Z,22.95
2019-04-06T19:29:23.944Z,24.40
2019-04-06T19:31:53.306Z,21.17
2019-04-06T19:34:22.863Z,23.10
2019-04-06T19:36:52.202Z,22.20
2019-04-06T19:39:21.459Z,23.13
2019-04-06T19:41:51.047Z,24.37
2019-04-06T19:44:20.466Z,25.55
2019-04-06T19:46:50.378Z,24.00
2019-04-06T19:49:19.606Z,35.33
2019-04-06T19:51:48.864Z,36.40
2019-04-06T19:54:17.962Z,26.90
2019-04-06T19:56:47.609Z,27.93
2019-04-06T19:59:17.366Z,33.30
2019-04-06T20:01:47.078Z,33.10
2019-04-06T20:04:16.526Z,28.30
2019-04-06T20:06:45.746Z,29.17
2019-04-06T20:09:15.101Z,32.17
2019-04-06T20:11:44.262Z,22.87
2019-04-06T20:14:13.473Z,28.50
2019-04-06T20:16:43.111Z,27.20
2019-04-06T20:19:12.610Z,25.10
2019-04-06T20:21:42.045Z,23.35
2019-04-06T20:24:11.781Z,22.65
2019-04-06T20:26:41.584Z,24.95
2019-04-06T20:29:10.856Z,26.87
2019-04-06T20:31:40.003Z,24.95
2019-04-06T20:34:09.206Z,25.30
2019-04-06T20:36:38.366Z,27.75
2019-04-06T20:39:09.284Z,23.47
2019-04-06T20:41:38.451Z,28.17
2019-04-06T20:44:07.799Z,29.05
2019-04-06T20:46:37.500Z,24.75
2019-04-06T20:49:07.622Z,28.27
2019-04-06T20:51:36.877Z,25.35
2019-04-06T20:54:06.464Z,27.62
2019-04-06T20:56:36.185Z,24.92
2019-04-06T20:59:05.756Z,31.15
2019-04-06T21:01:35.150Z,30.90
2019-04-06T21:04:04.471Z,31.52
2019-04-06T21:06:35.061Z,31.25
2019-04-06T21:09:09.473Z,30.35
2019-04-06T21:11:39.274Z,35.73
2019-04-06T21:14:08.972Z,28.45
2019-04-06T21:16:38.896Z,30.23
2019-04-06T21:19:08.246Z,26.20
2019-04-06T21:21:38.052Z,29.35
2019-04-06T21:24:08.031Z,27.75
2019-04-06T21:26:37.973Z,31.27
2019-04-06T21:29:07.895Z,31.05
2019-04-06T21:31:37.149Z,29.18
2019-04-06T21:34:13.216Z,30.52
2019-04-06T21:36:37.939Z,26.77
2019-04-06T21:39:08.273Z,33.88
2019-04-06T21:41:37.535Z,29.48
2019-04-06T21:44:06.713Z,26.82
2019-04-06T21:46:35.912Z,30.60
2019-04-06T21:49:05.499Z,31.90
2019-04-06T21:51:35.418Z,27.87
2019-04-06T21:54:04.740Z,31.25
2019-04-06T21:56:34.210Z,29.18
2019-04-06T22:03:06.188Z,29.65
2019-04-06T22:05:35.372Z,28.10
2019-04-06T22:08:04.969Z,27.70
2019-04-06T22:10:34.463Z,28.60
2019-04-06T22:13:03.897Z,25.68
2019-04-06T22:15:33.090Z,29.82
2019-04-06T22:18:02.381Z,24.60
2019-04-06T22:20:31.588Z,27.90
2019-04-06T22:23:00.820Z,27.85
2019-04-06T22:25:30.024Z,24.82
2019-04-06T22:27:59.541Z,26.25
2019-04-06T22:30:28.992Z,32.63
2019-04-06T22:32:58.401Z,29.80
2019-04-06T22:35:27.554Z,29.07
2019-04-06T22:37:56.857Z,21.95
2019-04-06T22:40:26.148Z,26.52
2019-04-06T22:42:55.332Z,29.15
2019-04-06T22:45:25.713Z,26.57
2019-04-06T22:47:55.714Z,34.55
2019-04-06T22:50:25.058Z,34.38
2019-04-06T22:52:54.203Z,31.27
2019-04-06T22:55:23.361Z,38.83
2019-04-06T22:57:53.281Z,31.33
2019-04-06T23:00:37.646Z,31.27
2019-04-06T23:03:24.366Z,35.33
2019-04-06T23:05:57.331Z,28.65
2019-04-06T23:08:28.987Z,32.50
2019-04-06T23:10:58.356Z,34.15
2019-04-06T23:13:27.916Z,26.48
2019-04-06T23:15:57.675Z,31.30
2019-04-06T23:18:27.479Z,31.70
2019-04-06T23:20:56.685Z,29.77
2019-04-06T23:23:25.881Z,30.40
2019-04-06T23:25:55.065Z,30.12
2019-04-06T23:28:24.233Z,35.85
2019-04-06T23:30:53.537Z,35.52
2019-04-06T23:33:22.846Z,29.27
2019-04-06T23:35:52.063Z,29.82
2019-04-06T23:38:21.735Z,34.23
2019-04-06T23:40:51.254Z,33.75
2019-04-06T23:43:20.979Z,32.40
2019-04-06T23:45:50.366Z,35.00
2019-04-06T23:48:20.503Z,32.23
2019-04-06T23:50:49.950Z,35.98
2019-04-06T23:53:20.492Z,36.58
2019-04-06T23:55:49.691Z,36.25
2019-04-06T23:58:18.922Z,35.65
